Wausau, FL

3:38 PM CDT on July 24, 2014 (GMT -0500)
Silver Lake Road (KFLFOUNT2) Elev 178 ft | 30.48 °N, 85.47 °W | Change Station

Current weather conditions updated 3 seconds ago

Partly Cloudy
Partly Cloudy
86.9 °F
Feels Like 84 °F
N
4.0
Wind Variable Wind from SSW
Gusts 4.0 mph

Today is forecast to be Cooler than yesterday. Thunderstorms early.

Today
High -- | Low -- °F
--% Chance of Precip.
Yesterday
High -- | Low -- °F
Precip. -- in
5:55 AM 7:42 PM
Waning Crescent, 4% visible
Pressure 29.86 in
Visibility 10.0 miles
Clouds Clear
Heat Index 84 °F
Dew Point 44 °F
Humidity 22%
Rainfall 0.20 in
Snow Depth Not available.
UV 10 out of 12
Pollen 3.60 out of 12
Air Quality Not available.
Flu Activity Not available.
METAR K1J0 241958Z AUTO VRB03KT 10SM CLR 30/23 A2998 RMK AO2 RAB33E54 SLP110 P0000 T03000233

More Conditions Fewer Conditions

Pressure 29.86 in
Visibility 10.0 miles
Clouds Clear
Heat Index 84 °F
Dew Point 44 °F
Humidity 22%
Rainfall 0.20 in
Snow Depth Not available.
UV 10 out of 12
Pollen 3.60 out of 12
Air Quality Not available.
Flu Activity Not available.
METAR K1J0 241958Z AUTO VRB03KT 10SM CLR 30/23 A2998 RMK AO2 RAB33E54 SLP110 P0000 T03000233

More Conditions Fewer Conditions

10-Day Weather Forecast

Almanac

Astronomy

Jul. 24, 2014 Rise Set
Actual Time 5:55 AM CDT 7:42 PM CDT
Civil Twilight 5:28 AM CDT 8:08 PM CDT
Nautical Twilight 4:56 AM CDT 8:40 PM CDT
Astronomical Twilight 4:22 AM CDT 9:14 PM CDT
Moon 4:01 AM CDT 5:58 PM CDT
Length of Visible Light 14h 39m
Length of Day
13h 46m
Tomorrow will be 1m 13s shorter.
Waning Crescent, 4% of the Moon is Illuminated
Today
Waning Crescent
Jul 26
New
Aug 3
First Quarter
Aug 10
Full
Aug 17
Last Quarter

Today's Extremes

State Highs State Lows

Community

WunderPhotos

Upload Photos

1,737,123 photos uploaded!

Nearby

Snow Depth

Station Depth Elevation
No new snow has been reported.

Earthquake Activity

City Distance Mag. Time & Date
No recent earthquake activity has been reported nearby.
Minimum magnitude displayed is 2.5.

Coastal Water Temperatures

Place Temperature
Panama City, FL 86.0 °F
Panama City Beach, FL 82.9 °F
Apalachicola, FL 84.0 °F

Nearby Weather Stations

Station Location Temp. Heat Index Dew Point Humidity Wind Precip. Elev Updated Type
Silver Lake Road, Fountain, FL 86.9 °F 84 °F 44 °F 22% SSW  at  4.0 mph 0.00 in / hr 178 ft 3:38 PM EST Rapid Fire
Southport, Panama City, FL 85.1 °F 94 °F 76 °F 73% SW  at  12.7 mph 0.00 in / hr 50 ft 3:38 PM CDT Rapid Fire

Show More Stations Show Fewer Stations